Time;durP1;ratioP1;P1;durP2;ratioP2;P2;SDS_P1;SDS_P2;PMS_P1;PMS_P2;Temp;Humidity;BMP_temperature;BMP_pressure;BME280_temperature;BME280_humidity;BME280_pressure;Samples;Min_cycle;Max_cycle;Signal;HPM_P1;HPM_P2
2023/10/19 00:00:21;;;;;;;13.05;11.75;;;10.60;99.90;;;;;;5095156;28;20439;-70
2023/10/19 00:02:51;;;;;;;12.70;11.50;;;10.60;99.90;;;;;;5093853;28;20872;-70
2023/10/19 00:05:18;;;;;;;12.30;11.20;;;10.60;99.90;;;;;;5101118;28;20520;-70
2023/10/19 00:07:46;;;;;;;12.23;11.20;;;10.60;99.90;;;;;;5096225;28;20515;-70
2023/10/19 00:10:16;;;;;;;12.82;11.63;;;10.60;99.90;;;;;;5095264;28;20430;-71
2023/10/19 00:12:43;;;;;;;13.50;12.20;;;10.60;99.90;;;;;;5093668;28;20440;-70
2023/10/19 00:15:12;;;;;;;14.02;12.65;;;10.60;99.90;;;;;;5098116;28;20507;-70
2023/10/19 00:17:38;;;;;;;13.00;11.90;;;10.70;99.90;;;;;;5113562;22;20445;-70
2023/10/19 00:20:29;;;;;;;13.00;11.80;;;10.70;99.90;;;;;;5077836;28;20439;-69
2023/10/19 00:22:58;;;;;;;12.53;11.33;;;10.80;99.90;;;;;;5079564;28;20489;-69
2023/10/19 00:25:25;;;;;;;12.80;11.60;;;10.80;99.90;;;;;;5078669;28;20436;-71
2023/10/19 00:27:52;;;;;;;13.20;12.00;;;10.80;99.90;;;;;;5085990;28;20674;-70
2023/10/19 00:30:23;;;;;;;13.32;12.13;;;10.90;99.90;;;;;;5081750;28;20441;-70
2023/10/19 00:32:50;;;;;;;13.90;12.50;;;10.90;99.90;;;;;;5084902;28;20485;-69
2023/10/19 00:35:27;;;;;;;13.30;12.10;;;10.90;99.90;;;;;;5080470;28;20555;-69
2023/10/19 00:38:12;;;;;;;14.02;12.63;;;10.90;99.90;;;;;;5079681;28;20426;-70
2023/10/19 00:40:47;;;;;;;13.25;12.15;;;10.90;99.90;;;;;;5083150;28;20926;-69
2023/10/19 00:43:17;;;;;;;13.43;12.23;;;11.00;99.90;;;;;;5080558;28;20454;-69
2023/10/19 00:45:46;;;;;;;14.00;12.70;;;11.00;99.90;;;;;;5077554;28;20516;-70
2023/10/19 00:48:13;;;;;;;13.60;12.30;;;11.10;99.90;;;;;;5081354;28;20426;-70
2023/10/19 00:50:42;;;;;;;13.87;12.63;;;11.10;99.90;;;;;;5079273;28;20495;-70
2023/10/19 00:53:12;;;;;;;13.30;12.10;;;11.10;99.90;;;;;;5080430;28;20522;-70
2023/10/19 00:55:41;;;;;;;13.60;12.40;;;11.10;99.90;;;;;;5083306;28;20426;-70
2023/10/19 00:58:11;;;;;;;13.65;12.25;;;11.10;99.90;;;;;;5084056;28;20535;-70
2023/10/19 01:00:43;;;;;;;14.13;12.93;;;11.20;99.90;;;;;;5077875;28;20504;-68
2023/10/19 01:03:16;;;;;;;14.95;13.52;;;11.10;99.90;;;;;;5083535;28;20430;-69
2023/10/19 01:05:48;;;;;;;14.40;13.10;;;11.10;99.90;;;;;;5083200;28;20428;-70
2023/10/19 01:08:23;;;;;;;14.50;13.20;;;11.10;99.90;;;;;;5083916;28;20422;-69
2023/10/19 01:10:52;;;;;;;13.80;12.50;;;11.10;99.90;;;;;;5081822;28;20434;-69
2023/10/19 01:13:26;;;;;;;14.20;12.90;;;11.20;99.90;;;;;;5081888;28;20433;-70
2023/10/19 01:15:54;;;;;;;14.45;13.25;;;11.20;99.90;;;;;;5081100;28;20425;-70
2023/10/19 01:18:22;;;;;;;14.27;13.07;;;11.20;99.90;;;;;;5084784;28;20465;-69
2023/10/19 01:20:51;;;;;;;13.80;12.50;;;11.20;99.90;;;;;;5087397;28;20433;-69
2023/10/19 01:23:25;;;;;;;14.10;12.90;;;11.30;99.90;;;;;;5086619;28;20415;-69
2023/10/19 01:26:00;;;;;;;14.77;13.43;;;11.30;99.90;;;;;;5090785;28;20463;-70
2023/10/19 01:28:41;;;;;;;13.57;12.27;;;11.40;99.90;;;;;;5082677;28;20422;-70
2023/10/19 01:31:08;;;;;;;14.32;13.13;;;11.40;99.90;;;;;;5086701;28;20750;-70
2023/10/19 01:33:35;;;;;;;14.18;12.82;;;11.40;99.90;;;;;;5088821;28;20429;-70
2023/10/19 01:36:11;;;;;;;14.38;13.13;;;11.40;99.90;;;;;;5085184;28;20498;-70
2023/10/19 01:38:39;;;;;;;14.30;13.00;;;11.40;99.90;;;;;;5085808;28;20904;-72
2023/10/19 01:41:13;;;;;;;14.98;13.63;;;11.40;99.90;;;;;;5088799;28;20908;-70
2023/10/19 01:43:40;;;;;;;13.98;12.77;;;11.50;99.90;;;;;;5083177;28;20433;-70
2023/10/19 01:46:11;;;;;;;14.80;13.48;;;11.50;99.90;;;;;;5087039;28;20501;-70
2023/10/19 01:48:40;;;;;;;14.50;13.20;;;11.50;99.90;;;;;;5087918;28;20916;-68
2023/10/19 01:51:10;;;;;;;14.50;13.20;;;11.50;99.90;;;;;;5084841;28;20486;-70
2023/10/19 01:53:39;;;;;;;13.85;12.55;;;11.60;99.90;;;;;;5086197;28;20433;-70
2023/10/19 01:56:09;;;;;;;13.63;12.32;;;11.60;99.90;;;;;;5094312;28;20862;-70
2023/10/19 01:58:36;;;;;;;12.60;11.50;;;11.60;99.90;;;;;;5096045;28;20430;-71
2023/10/19 02:01:08;;;;;;;14.70;13.40;;;11.60;99.90;;;;;;5085278;28;20911;-71
2023/10/19 02:03:35;;;;;;;14.32;13.02;;;11.70;99.90;;;;;;5087863;28;20507;-70
2023/10/19 02:06:10;;;;;;;13.32;12.13;;;11.70;99.90;;;;;;5083456;28;20429;-70
2023/10/19 02:08:38;;;;;;;14.05;12.82;;;11.70;99.90;;;;;;5080610;28;20932;-71
2023/10/19 02:11:13;;;;;;;13.90;12.70;;;11.70;99.90;;;;;;5085488;28;20511;-69
2023/10/19 02:13:39;;;;;;;13.60;12.30;;;11.70;99.90;;;;;;5088457;28;20429;-71
2023/10/19 02:16:07;;;;;;;14.38;13.07;;;11.70;99.90;;;;;;5086393;28;20505;-71
2023/10/19 02:18:34;;;;;;;13.75;12.55;;;11.70;99.90;;;;;;5088429;28;20793;-70
2023/10/19 02:21:06;;;;;;;14.02;12.73;;;11.70;99.90;;;;;;5084897;28;20513;-69
2023/10/19 02:23:34;;;;;;;13.93;12.73;;;11.70;99.90;;;;;;5082152;28;20452;-70
2023/10/19 02:26:03;;;;;;;13.68;12.48;;;11.60;99.90;;;;;;5087485;28;20419;-70
2023/10/19 02:28:31;;;;;;;14.90;13.60;;;11.60;99.90;;;;;;5080855;28;20421;-69
2023/10/19 02:31:10;;;;;;;15.23;13.73;;;11.60;99.90;;;;;;5085555;28;20428;-71
2023/10/19 02:33:37;;;;;;;14.23;12.93;;;11.60;99.90;;;;;;5087473;28;20434;-70
2023/10/19 02:36:05;;;;;;;14.25;12.95;;;11.60;99.90;;;;;;5088217;28;20457;-69
2023/10/19 02:38:33;;;;;;;14.65;13.18;;;11.60;99.90;;;;;;5083777;28;20429;-70
2023/10/19 02:40:59;;;;;;;14.05;12.75;;;11.70;99.90;;;;;;5084651;28;20806;-70
2023/10/19 02:43:27;;;;;;;14.63;13.32;;;11.70;99.90;;;;;;5080267;28;20429;-70
2023/10/19 02:45:53;;;;;;;14.60;13.10;;;11.70;99.90;;;;;;5080151;28;20471;-69
2023/10/19 02:48:21;;;;;;;14.17;12.87;;;11.60;99.90;;;;;;5084395;28;20448;-69
2023/10/19 02:50:48;;;;;;;14.30;13.00;;;11.70;99.90;;;;;;5084943;28;20422;-68
2023/10/19 02:53:14;;;;;;;13.90;12.60;;;11.70;99.90;;;;;;5080268;28;20421;-69
2023/10/19 02:55:41;;;;;;;14.70;13.40;;;11.70;99.90;;;;;;5079656;28;20479;-72
2023/10/19 02:58:07;;;;;;;13.95;12.75;;;11.80;99.90;;;;;;5084021;28;20437;-70
2023/10/19 03:00:39;;;;;;;13.57;12.38;;;11.80;99.90;;;;;;5084514;28;20434;-70
2023/10/19 03:03:06;;;;;;;13.63;12.43;;;11.80;99.90;;;;;;5083803;28;21004;-71
2023/10/19 03:05:34;;;;;;;13.60;12.40;;;11.80;99.90;;;;;;5088858;28;20512;-71
2023/10/19 03:08:05;;;;;;;13.80;12.60;;;11.80;99.90;;;;;;5083743;28;20440;-70
2023/10/19 03:10:41;;;;;;;13.27;12.07;;;11.80;99.90;;;;;;5082782;28;20522;-70
2023/10/19 03:13:07;;;;;;;13.57;12.38;;;11.90;99.90;;;;;;5087619;28;20452;-71
2023/10/19 03:15:39;;;;;;;13.57;12.38;;;11.90;99.90;;;;;;5085233;28;20919;-70
2023/10/19 03:18:05;;;;;;;13.40;12.20;;;11.90;99.90;;;;;;5084075;28;20457;-71
2023/10/19 03:20:33;;;;;;;12.23;11.13;;;11.90;99.90;;;;;;5083799;28;20900;-70
2023/10/19 03:23:01;;;;;;;13.90;12.68;;;11.90;99.90;;;;;;5088598;28;20440;-70
2023/10/19 03:25:51;;;;;;;13.20;12.10;;;11.90;99.90;;;;;;5079705;28;20461;-70
2023/10/19 03:28:18;;;;;;;13.93;12.63;;;11.90;99.90;;;;;;5087229;28;20879;-69
2023/10/19 03:30:47;;;;;;;12.93;11.77;;;11.90;99.90;;;;;;5085509;28;20422;-71
2023/10/19 03:33:13;;;;;;;12.75;11.65;;;11.90;99.90;;;;;;5084809;28;20429;-71
2023/10/19 03:35:42;;;;;;;13.07;11.98;;;11.80;99.90;;;;;;5082636;28;20438;-69
2023/10/19 03:38:14;;;;;;;12.68;11.65;;;11.80;99.90;;;;;;5086719;28;20459;-70
2023/10/19 03:40:41;;;;;;;13.18;12.07;;;11.80;99.90;;;;;;5082614;28;20506;-71
2023/10/19 03:43:16;;;;;;;13.38;12.07;;;11.80;99.90;;;;;;5083236;28;20463;-70
2023/10/19 03:45:50;;;;;;;12.77;11.48;;;11.90;99.90;;;;;;5080513;28;20867;-70
2023/10/19 03:48:23;;;;;;;12.25;11.20;;;11.90;99.90;;;;;;5081791;28;20441;-70
2023/10/19 03:50:53;;;;;;;12.02;10.93;;;11.90;99.90;;;;;;5086447;28;20433;-71
2023/10/19 03:53:21;;;;;;;13.00;11.80;;;11.90;99.90;;;;;;5085469;28;20533;-70
2023/10/19 03:55:49;;;;;;;12.32;11.32;;;12.00;99.90;;;;;;5083642;28;20430;-70
2023/10/19 03:58:16;;;;;;;12.77;11.50;;;12.00;99.90;;;;;;5085686;28;20945;-69
2023/10/19 04:00:44;;;;;;;11.80;10.80;;;12.00;99.90;;;;;;5081626;28;21251;-70
2023/10/19 04:03:12;;;;;;;12.40;11.20;;;12.00;99.90;;;;;;5087292;28;20438;-71
2023/10/19 04:05:41;;;;;;;12.10;11.10;;;12.00;99.90;;;;;;5078888;28;20439;-71
2023/10/19 04:08:12;;;;;;;12.00;10.80;;;12.10;99.90;;;;;;5084626;28;20425;-70
2023/10/19 04:10:44;;;;;;;12.40;11.30;;;12.10;99.90;;;;;;5081634;28;20426;-71
2023/10/19 04:13:12;;;;;;;12.02;10.93;;;12.00;99.90;;;;;;5086772;28;20428;-69
2023/10/19 04:15:39;;;;;;;11.98;10.88;;;12.00;99.90;;;;;;5078515;28;20449;-71
2023/10/19 04:18:09;;;;;;;12.48;11.38;;;12.00;99.90;;;;;;5082132;28;20495;-71
2023/10/19 04:20:54;;;;;;;12.23;11.02;;;11.90;99.90;;;;;;5083247;28;20429;-70
2023/10/19 04:23:22;;;;;;;12.52;11.35;;;11.90;99.90;;;;;;5085883;28;20508;-69
2023/10/19 04:25:49;;;;;;;12.38;11.07;;;11.90;99.90;;;;;;5085192;28;20436;-70
2023/10/19 04:28:20;;;;;;;12.20;11.00;;;12.00;99.90;;;;;;5084202;28;20425;-70
2023/10/19 04:30:48;;;;;;;11.70;10.60;;;12.00;99.90;;;;;;5095732;28;20409;-69
2023/10/19 04:33:16;;;;;;;12.00;10.80;;;12.00;99.90;;;;;;5100093;28;20433;-70
2023/10/19 04:35:45;;;;;;;11.40;10.40;;;12.00;99.90;;;;;;5082776;28;20520;-71
2023/10/19 04:38:12;;;;;;;11.60;10.50;;;12.10;99.90;;;;;;5083014;28;20433;-71
2023/10/19 04:40:39;;;;;;;12.00;10.90;;;12.10;99.90;;;;;;5077464;28;20425;-71
2023/10/19 04:43:06;;;;;;;11.43;10.38;;;12.10;99.90;;;;;;5083532;28;20429;-71
2023/10/19 04:45:32;;;;;;;12.10;11.10;;;12.10;99.90;;;;;;5077525;28;20522;-71
2023/10/19 04:47:59;;;;;;;11.80;10.70;;;12.10;99.90;;;;;;5077443;28;20436;-71
2023/10/19 04:50:26;;;;;;;11.68;10.68;;;12.10;99.90;;;;;;5079551;28;20908;-71
2023/10/19 04:52:54;;;;;;;11.70;10.60;;;12.10;99.90;;;;;;5080572;28;20434;-70
2023/10/19 04:55:21;;;;;;;11.80;10.70;;;12.10;99.90;;;;;;5086690;28;20434;-71
2023/10/19 04:57:48;;;;;;;12.05;10.80;;;12.10;99.90;;;;;;5083854;28;20545;-70
2023/10/19 05:00:16;;;;;;;11.07;10.18;;;12.20;99.90;;;;;;5085872;28;20437;-69
2023/10/19 05:02:43;;;;;;;11.63;10.43;;;12.20;99.90;;;;;;5086374;28;20520;-72
2023/10/19 05:05:09;;;;;;;11.43;10.32;;;12.20;99.90;;;;;;5087454;28;20429;-70
2023/10/19 05:07:36;;;;;;;11.43;10.23;;;12.20;99.90;;;;;;5087390;28;20488;-72
2023/10/19 05:10:06;;;;;;;11.30;10.30;;;12.20;99.90;;;;;;5089370;28;20501;-72
2023/10/19 05:12:32;;;;;;;10.85;9.75;;;12.20;99.90;;;;;;5086966;28;20504;-73
2023/10/19 05:14:59;;;;;;;12.05;10.20;;;12.30;99.90;;;;;;5092115;28;20414;-73
2023/10/19 05:17:27;;;;;;;11.35;10.35;;;12.30;99.90;;;;;;5089437;28;20440;-73
2023/10/19 05:19:53;;;;;;;11.10;10.00;;;12.30;99.90;;;;;;5083071;28;20480;-73
2023/10/19 05:22:21;;;;;;;10.63;9.73;;;12.30;99.90;;;;;;5086652;28;20449;-74
2023/10/19 05:24:48;;;;;;;11.18;10.10;;;12.30;99.90;;;;;;5090457;28;20430;-71
2023/10/19 05:27:17;;;;;;;11.70;10.50;;;12.30;99.90;;;;;;5081595;28;20508;-72
2023/10/19 05:29:44;;;;;;;11.40;10.40;;;12.40;99.90;;;;;;5084912;28;20480;-72
2023/10/19 05:32:11;;;;;;;11.48;10.38;;;12.40;99.90;;;;;;5084447;28;20433;-69
2023/10/19 05:34:37;;;;;;;10.70;9.70;;;12.40;99.90;;;;;;5089964;28;20426;-72
2023/10/19 05:37:05;;;;;;;10.63;9.63;;;12.40;99.90;;;;;;5092441;28;20429;-72
2023/10/19 05:39:33;;;;;;;11.20;10.02;;;12.40;99.90;;;;;;5077877;28;20781;-72
2023/10/19 05:42:01;;;;;;;11.00;9.90;;;12.40;99.90;;;;;;5086233;28;20445;-72
2023/10/19 05:44:30;;;;;;;10.70;9.70;;;12.40;99.90;;;;;;5088962;28;20438;-73
2023/10/19 05:46:58;;;;;;;10.07;9.18;;;12.40;99.90;;;;;;5090648;28;20533;-74
2023/10/19 05:49:25;;;;;;;11.20;10.10;;;12.40;99.90;;;;;;5091478;28;20433;-72
2023/10/19 05:51:52;;;;;;;10.88;9.88;;;12.50;99.90;;;;;;5091150;28;20418;-73
2023/10/19 05:54:19;;;;;;;10.73;9.68;;;12.50;99.90;;;;;;5091630;28;20416;-72
2023/10/19 05:56:46;;;;;;;11.40;10.40;;;12.40;99.90;;;;;;5091409;28;20467;-71
2023/10/19 05:59:13;;;;;;;11.98;10.70;;;12.50;99.90;;;;;;5084995;28;20432;-73
2023/10/19 06:01:41;;;;;;;11.90;10.80;;;12.40;99.90;;;;;;5090915;28;20410;-73
2023/10/19 06:04:08;;;;;;;12.27;11.00;;;12.40;99.90;;;;;;5084377;28;20410;-73
2023/10/19 06:06:36;;;;;;;11.70;10.60;;;12.40;99.90;;;;;;5077932;28;20410;-73
2023/10/19 06:09:04;;;;;;;11.70;10.63;;;12.50;99.90;;;;;;5078547;28;20434;-72
2023/10/19 06:11:32;;;;;;;12.07;10.93;;;12.40;99.90;;;;;;5083924;28;20940;-73
2023/10/19 06:13:59;;;;;;;12.23;11.13;;;12.50;99.90;;;;;;5089456;28;20430;-72
2023/10/19 06:16:26;;;;;;;12.40;11.20;;;12.50;99.90;;;;;;5083693;28;20601;-72
2023/10/19 06:18:55;;;;;;;11.80;10.70;;;12.50;99.90;;;;;;5084057;28;20438;-73
2023/10/19 06:21:23;;;;;;;12.10;10.90;;;12.50;99.90;;;;;;5075097;28;20426;-73
2023/10/19 06:23:50;;;;;;;12.13;11.10;;;12.50;99.90;;;;;;5089613;28;20418;-73
2023/10/19 06:26:17;;;;;;;11.85;10.65;;;12.50;99.90;;;;;;5071143;28;20425;-73
2023/10/19 06:28:44;;;;;;;12.10;11.00;;;12.60;99.90;;;;;;5087715;28;20429;-73
2023/10/19 06:31:11;;;;;;;12.70;11.50;;;12.60;99.90;;;;;;5081540;28;20433;-73
2023/10/19 06:33:41;;;;;;;11.93;10.82;;;12.60;99.90;;;;;;5075947;28;20439;-72
2023/10/19 06:36:09;;;;;;;12.00;11.00;;;12.60;99.90;;;;;;5090268;28;20426;-74
2023/10/19 06:38:36;;;;;;;13.07;11.88;;;12.70;99.90;;;;;;5087340;28;20407;-73
2023/10/19 06:41:11;;;;;;;12.93;11.68;;;12.70;99.90;;;;;;5070432;28;20553;-73
2023/10/19 06:43:38;;;;;;;13.40;12.00;;;12.70;99.90;;;;;;5079295;28;21714;-73
2023/10/19 06:46:05;;;;;;;12.30;11.20;;;12.70;99.90;;;;;;5079755;28;20511;-72
2023/10/19 06:48:33;;;;;;;12.25;11.20;;;12.70;99.90;;;;;;5078238;28;20793;-73
2023/10/19 06:51:00;;;;;;;12.70;11.50;;;12.80;99.90;;;;;;5073979;28;20427;-72
2023/10/19 06:53:28;;;;;;;12.75;11.55;;;12.80;99.90;;;;;;5082742;28;20417;-73
2023/10/19 06:55:55;;;;;;;13.75;12.45;;;12.80;99.90;;;;;;5088034;28;20453;-73
2023/10/19 06:58:26;;;;;;;12.93;11.73;;;12.80;99.90;;;;;;5079188;28;20765;-72
2023/10/19 07:00:56;;;;;;;11.93;10.82;;;12.90;99.90;;;;;;5078231;28;20417;-74
2023/10/19 07:03:23;;;;;;;12.50;11.40;;;12.90;99.90;;;;;;5076941;28;20942;-72
2023/10/19 07:05:53;;;;;;;12.85;11.75;;;12.90;99.90;;;;;;5082902;28;20917;-72
2023/10/19 07:08:21;;;;;;;13.13;11.93;;;12.90;99.90;;;;;;5088782;28;20441;-70
2023/10/19 07:10:49;;;;;;;13.00;11.80;;;12.90;99.90;;;;;;5085340;28;20416;-72
2023/10/19 07:13:16;;;;;;;12.57;11.37;;;12.90;99.90;;;;;;5080529;28;20434;-71
2023/10/19 07:15:46;;;;;;;13.73;12.60;;;13.00;99.90;;;;;;5082496;28;20418;-73
2023/10/19 07:18:13;;;;;;;12.70;11.50;;;13.00;99.90;;;;;;5092068;28;20835;-72
2023/10/19 07:20:42;;;;;;;12.85;11.55;;;13.00;99.90;;;;;;5090537;28;20437;-71
2023/10/19 07:23:18;;;;;;;13.10;11.90;;;13.10;99.90;;;;;;5095116;28;20427;-73
2023/10/19 07:25:47;;;;;;;12.33;11.13;;;13.10;99.90;;;;;;5088426;28;20421;-72
2023/10/19 07:28:16;;;;;;;12.25;11.15;;;13.10;99.90;;;;;;5083230;28;20436;-72
2023/10/19 07:30:43;;;;;;;12.00;11.00;;;13.20;99.90;;;;;;5074876;28;20464;-72
2023/10/19 07:33:10;;;;;;;12.30;11.30;;;13.20;99.90;;;;;;5074921;28;20434;-72
2023/10/19 07:35:38;;;;;;;12.30;11.20;;;13.20;99.90;;;;;;5072434;28;20411;-71
2023/10/19 07:38:07;;;;;;;12.50;11.20;;;13.20;99.90;;;;;;5081949;28;20412;-72
2023/10/19 07:40:34;;;;;;;12.38;11.18;;;13.30;99.90;;;;;;5087553;28;20798;-72
2023/10/19 07:43:01;;;;;;;12.93;11.67;;;13.30;99.90;;;;;;5080035;28;20415;-73
2023/10/19 07:45:31;;;;;;;12.98;11.55;;;13.30;99.90;;;;;;5087383;28;20415;-73
2023/10/19 07:48:05;;;;;;;12.52;11.32;;;13.40;99.90;;;;;;5076272;28;20424;-73
2023/10/19 07:50:32;;;;;;;12.50;11.30;;;13.40;99.90;;;;;;5089534;28;20508;-70
2023/10/19 07:52:59;;;;;;;12.25;11.05;;;13.40;99.90;;;;;;5085047;28;20433;-72
2023/10/19 07:55:26;;;;;;;11.93;10.90;;;13.50;99.90;;;;;;5088915;28;20430;-71
2023/10/19 07:57:53;;;;;;;11.20;10.30;;;13.50;99.90;;;;;;5086856;28;20426;-73
2023/10/19 08:00:23;;;;;;;10.70;9.80;;;13.60;99.90;;;;;;5087189;28;20501;-73
2023/10/19 08:02:53;;;;;;;11.00;9.90;;;13.60;99.90;;;;;;5071083;28;20415;-73
2023/10/19 08:05:20;;;;;;;11.65;10.55;;;13.70;99.90;;;;;;5079656;28;20515;-74
2023/10/19 08:07:48;;;;;;;11.10;10.10;;;13.70;99.90;;;;;;5074249;28;20882;-73
2023/10/19 08:10:16;;;;;;;10.75;9.85;;;13.70;99.90;;;;;;5088124;28;20432;-72
2023/10/19 08:12:44;;;;;;;9.85;9.05;;;13.70;99.90;;;;;;5082938;28;20473;-72
2023/10/19 08:15:13;;;;;;;9.98;9.00;;;13.80;99.90;;;;;;5074286;28;20515;-73
2023/10/19 08:17:40;;;;;;;10.80;9.70;;;13.80;99.90;;;;;;5076873;28;20436;-73
2023/10/19 08:20:15;;;;;;;10.00;9.10;;;13.80;99.90;;;;;;5077001;28;20841;-73
2023/10/19 08:22:42;;;;;;;8.80;8.00;;;13.90;99.90;;;;;;5087403;28;20473;-73
2023/10/19 08:25:12;;;;;;;9.32;8.43;;;14.00;99.90;;;;;;5088361;28;20432;-72
2023/10/19 08:27:39;;;;;;;9.20;8.25;;;14.10;99.90;;;;;;5085692;28;20916;-72
2023/10/19 08:30:08;;;;;;;8.57;7.70;;;14.20;99.90;;;;;;5085370;28;20758;-72
2023/10/19 08:32:35;;;;;;;8.23;7.53;;;14.20;99.90;;;;;;5075796;28;20441;-74
2023/10/19 08:35:02;;;;;;;8.95;8.05;;;14.30;99.90;;;;;;5087596;28;20421;-71
2023/10/19 08:37:31;;;;;;;8.07;7.28;;;14.40;99.90;;;;;;5079781;28;20868;-73
2023/10/19 08:39:58;;;;;;;8.50;7.40;;;14.50;99.90;;;;;;5085810;28;20789;-72
2023/10/19 08:42:25;;;;;;;8.02;6.80;;;14.60;99.90;;;;;;5082863;28;20409;-74
2023/10/19 08:44:52;;;;;;;7.57;6.87;;;14.80;99.90;;;;;;5085853;28;20459;-74
2023/10/19 08:47:19;;;;;;;6.57;5.97;;;15.20;99.90;;;;;;5085018;28;20432;-72
2023/10/19 08:49:46;;;;;;;5.90;5.20;;;15.60;99.90;;;;;;5082593;28;20929;-72
2023/10/19 08:52:14;;;;;;;5.68;5.18;;;16.10;99.90;;;;;;5079247;28;20948;-74
2023/10/19 08:54:43;;;;;;;5.50;4.60;;;16.40;99.90;;;;;;5094578;28;20417;-72
2023/10/19 08:57:11;;;;;;;7.07;5.00;;;16.60;99.90;;;;;;5109584;28;20424;-71
2023/10/19 08:59:38;;;;;;;5.60;4.40;;;16.80;99.90;;;;;;5088419;28;20456;-74
2023/10/19 09:02:06;;;;;;;6.82;4.65;;;17.00;99.90;;;;;;5083070;28;20421;-73
2023/10/19 09:04:33;;;;;;;5.60;4.70;;;17.20;99.90;;;;;;5084963;28;20510;-73
2023/10/19 09:07:06;;;;;;;5.37;4.40;;;17.30;99.90;;;;;;5081810;28;20416;-72
2023/10/19 09:09:33;;;;;;;5.30;3.70;;;17.40;99.90;;;;;;5074929;28;20427;-74
2023/10/19 09:12:03;;;;;;;5.40;3.83;;;17.60;99.90;;;;;;5073359;28;20412;-72
2023/10/19 09:14:33;;;;;;;4.78;3.75;;;17.80;99.90;;;;;;5080080;28;20456;-72
2023/10/19 09:17:00;;;;;;;4.70;3.67;;;17.90;99.90;;;;;;5081112;28;20485;-73
2023/10/19 09:19:41;;;;;;;4.65;3.50;;;18.10;99.90;;;;;;5074171;28;20410;-73
2023/10/19 09:22:16;;;;;;;3.90;3.15;;;18.20;99.90;;;;;;5082966;28;21239;-73
2023/10/19 09:24:44;;;;;;;4.60;3.40;;;18.40;99.90;;;;;;5082557;28;20406;-72
2023/10/19 09:27:13;;;;;;;3.93;3.30;;;18.30;99.90;;;;;;5088161;28;20429;-72
2023/10/19 09:29:41;;;;;;;6.35;3.65;;;18.30;99.90;;;;;;5088304;28;20429;-72
2023/10/19 09:32:08;;;;;;;4.88;3.53;;;18.20;99.90;;;;;;5083197;28;20467;-73
2023/10/19 09:34:36;;;;;;;4.93;3.13;;;18.00;99.90;;;;;;5084998;28;20419;-73
2023/10/19 09:37:04;;;;;;;6.30;3.00;;;18.00;99.90;;;;;;5081098;28;20414;-73
2023/10/19 09:39:35;;;;;;;3.67;2.50;;;18.10;99.90;;;;;;5077204;28;20786;-72
2023/10/19 09:42:05;;;;;;;5.30;2.75;;;18.40;99.90;;;;;;5085299;28;20433;-74
2023/10/19 09:44:39;;;;;;;5.15;3.00;;;18.60;99.30;;;;;;5080885;28;20412;-74
2023/10/19 09:47:10;;;;;;;5.43;2.72;;;18.80;98.10;;;;;;5080541;28;20417;-72
2023/10/19 09:49:37;;;;;;;4.22;2.20;;;19.00;97.40;;;;;;5087940;28;20789;-73
2023/10/19 09:52:05;;;;;;;4.68;2.17;;;19.30;96.10;;;;;;5080817;28;20426;-72
2023/10/19 09:54:42;;;;;;;5.95;2.40;;;19.50;95.80;;;;;;5082102;28;21026;-72
2023/10/19 09:57:16;;;;;;;4.28;2.15;;;19.70;95.50;;;;;;5082924;28;20426;-74
2023/10/19 09:59:48;;;;;;;4.00;2.20;;;19.70;94.90;;;;;;5091486;28;20436;-74
2023/10/19 10:02:17;;;;;;;4.13;2.30;;;19.50;94.70;;;;;;5082776;28;20437;-74
2023/10/19 10:04:46;;;;;;;4.60;2.20;;;19.40;94.80;;;;;;5089589;28;21207;-72
2023/10/19 10:07:13;;;;;;;3.47;1.80;;;19.50;95.20;;;;;;5089617;28;20433;-75
2023/10/19 10:09:43;;;;;;;5.85;2.42;;;19.30;94.80;;;;;;5084877;28;20538;-71
2023/10/19 10:12:22;;;;;;;3.75;2.17;;;19.10;95.10;;;;;;5080653;28;20429;-73
2023/10/19 10:15:07;;;;;;;4.25;2.00;;;18.90;95.30;;;;;;5073643;28;20494;-71
2023/10/19 10:17:35;;;;;;;5.55;2.15;;;18.80;95.80;;;;;;5090270;28;20493;-72
2023/10/19 10:20:30;;;;;;;5.40;2.00;;;18.80;96.10;;;;;;5078409;28;20412;-73
2023/10/19 10:23:24;;;;;;;3.90;2.10;;;18.80;95.80;;;;;;5084140;28;20518;-71
2023/10/19 10:25:53;;;;;;;5.60;1.98;;;18.90;96.40;;;;;;5078493;28;20430;-73
2023/10/19 10:28:23;;;;;;;5.57;2.30;;;19.00;95.70;;;;;;5083189;28;20468;-73
2023/10/19 10:31:13;;;;;;;4.43;1.90;;;19.40;95.80;;;;;;5084076;28;21008;-72
2023/10/19 10:33:41;;;;;;;4.72;1.92;;;19.80;94.30;;;;;;5081465;28;20431;-73
2023/10/19 10:36:08;;;;;;;3.30;1.60;;;20.10;94.20;;;;;;5087950;28;20437;-72
2023/10/19 10:38:36;;;;;;;3.37;1.57;;;20.40;93.70;;;;;;5089339;28;20438;-72
2023/10/19 10:41:02;;;;;;;5.50;2.08;;;20.60;92.20;;;;;;5082504;28;20421;-71
2023/10/19 10:43:29;;;;;;;4.90;1.70;;;20.40;92.20;;;;;;5086332;28;20445;-73
2023/10/19 10:46:04;;;;;;;5.65;2.20;;;20.10;92.20;;;;;;5083267;28;20428;-73
2023/10/19 10:48:32;;;;;;;5.33;2.40;;;19.90;93.00;;;;;;5079793;28;20763;-72
2023/10/19 10:50:59;;;;;;;5.93;1.80;;;19.80;93.40;;;;;;5078589;28;20428;-69
2023/10/19 10:53:27;;;;;;;4.55;1.90;;;19.70;94.30;;;;;;5083222;28;20438;-72
2023/10/19 10:55:54;;;;;;;5.72;2.03;;;19.60;93.40;;;;;;5082539;28;20430;-72
2023/10/19 10:58:21;;;;;;;4.18;1.67;;;19.60;93.40;;;;;;5087379;28;20928;-71
2023/10/19 11:00:51;;;;;;;4.60;1.60;;;19.50;93.60;;;;;;5083688;28;21056;-73
2023/10/19 11:03:17;;;;;;;3.80;2.03;;;19.40;94.20;;;;;;5077811;28;20437;-72
2023/10/19 11:05:46;;;;;;;5.00;2.00;;;19.40;94.00;;;;;;5082333;28;20414;-72
2023/10/19 11:08:14;;;;;;;5.82;2.08;;;19.30;94.00;;;;;;5084768;28;20407;-73
2023/10/19 11:10:44;;;;;;;3.47;1.60;;;19.20;94.40;;;;;;5081651;28;20429;-73
2023/10/19 11:13:13;;;;;;;3.65;1.70;;;19.10;94.80;;;;;;5087051;28;20508;-72
2023/10/19 11:15:47;;;;;;;4.13;1.77;;;19.00;95.00;;;;;;5082985;28;20414;-72
2023/10/19 11:18:30;;;;;;;4.30;1.80;;;19.00;95.30;;;;;;5088693;28;20437;-70
2023/10/19 11:20:59;;;;;;;6.35;2.08;;;18.90;95.40;;;;;;5080914;28;20422;-73
2023/10/19 11:23:40;;;;;;;6.60;2.00;;;18.90;95.60;;;;;;5077231;28;20432;-73
2023/10/19 11:26:07;;;;;;;6.15;1.70;;;18.90;95.30;;;;;;5078704;28;20426;-73
2023/10/19 11:28:38;;;;;;;4.60;1.80;;;18.90;95.30;;;;;;5078231;28;20853;-73
2023/10/19 11:31:13;;;;;;;5.60;1.90;;;18.90;96.00;;;;;;5088158;28;20422;-71
2023/10/19 11:33:41;;;;;;;4.43;1.60;;;18.80;95.40;;;;;;5085764;28;20423;-71
2023/10/19 11:36:12;;;;;;;3.08;1.40;;;18.80;95.00;;;;;;5091463;28;20492;-72
2023/10/19 11:38:40;;;;;;;5.90;1.90;;;18.70;95.90;;;;;;5079352;28;20562;-73
2023/10/19 11:41:07;;;;;;;5.50;1.70;;;18.60;95.60;;;;;;5089894;28;20434;-73
2023/10/19 11:43:34;;;;;;;6.43;1.98;;;18.60;95.80;;;;;;5081160;28;20437;-73
2023/10/19 11:46:01;;;;;;;5.47;1.67;;;18.70;95.90;;;;;;5083372;28;20785;-72
2023/10/19 11:48:28;;;;;;;7.72;2.20;;;18.60;95.90;;;;;;5086641;28;20446;-70
2023/10/19 11:50:55;;;;;;;5.27;1.80;;;18.60;96.20;;;;;;5105849;28;20436;-72
2023/10/19 11:53:23;;;;;;;5.38;1.90;;;18.60;95.60;;;;;;5104099;28;20431;-71
2023/10/19 11:55:50;;;;;;;3.65;1.45;;;18.50;95.60;;;;;;5096017;28;20800;-70
2023/10/19 11:58:18;;;;;;;5.53;1.80;;;18.50;95.90;;;;;;5079280;28;20463;-71
2023/10/19 12:00:46;;;;;;;6.00;1.80;;;18.50;95.70;;;;;;5088328;28;20769;-71
2023/10/19 12:03:13;;;;;;;5.40;1.88;;;18.50;95.20;;;;;;5090999;28;20434;-70
2023/10/19 12:05:42;;;;;;;5.87;1.80;;;18.50;95.70;;;;;;5095094;28;20516;-73
2023/10/19 12:08:08;;;;;;;4.78;1.77;;;18.40;95.70;;;;;;5089421;28;20935;-70
2023/10/19 12:10:38;;;;;;;9.68;2.17;;;18.30;96.40;;;;;;5088078;28;20428;-71
2023/10/19 12:13:06;;;;;;;6.78;2.45;;;18.30;96.60;;;;;;5085597;28;20474;-72
2023/10/19 12:15:33;;;;;;;4.93;2.00;;;18.20;97.10;;;;;;5087348;28;20505;-71
2023/10/19 12:18:01;;;;;;;5.22;2.53;;;18.10;97.10;;;;;;5074807;28;20472;-70
2023/10/19 12:20:30;;;;;;;6.18;2.25;;;18.00;97.40;;;;;;5085550;28;20406;-71
2023/10/19 12:22:58;;;;;;;5.20;2.33;;;18.00;97.80;;;;;;5088169;28;20500;-71
2023/10/19 12:25:29;;;;;;;5.10;2.13;;;17.90;98.00;;;;;;5074478;28;20489;-70
2023/10/19 12:27:59;;;;;;;5.50;2.50;;;17.90;98.10;;;;;;5072913;28;20430;-71
2023/10/19 12:30:31;;;;;;;5.40;2.08;;;17.80;98.00;;;;;;5075243;28;21320;-70
2023/10/19 12:33:00;;;;;;;5.85;2.20;;;17.80;98.10;;;;;;5077702;28;20431;-72
2023/10/19 12:35:42;;;;;;;5.88;2.10;;;17.80;98.10;;;;;;5076616;28;20433;-71
2023/10/19 12:38:15;;;;;;;4.50;2.25;;;17.80;97.90;;;;;;5079922;28;20519;-72
2023/10/19 12:40:42;;;;;;;4.80;1.90;;;17.80;98.50;;;;;;5079267;28;20872;-72
2023/10/19 12:43:12;;;;;;;4.75;1.80;;;17.70;98.30;;;;;;5086918;28;20429;-71